Weather Melbourne :: Current Conditions and Historical Data

 
Daily Summary for February 10, 2016 Units:  Both    English   Metric
« Previous Day
Next Day »
Daily Weekly Monthly Yearly Custom
  Current: High: Low: Average:
Temperature: 66.3 °F /  19.1 °C 66.3 °F /  19.1 °C 63.3 °F /  17.4 °C 64.5 °F /  18.1 °C
Dew Point: 58.1 °F /  14.5 °C 58.4 °F /  14.7 °C 56.9 °F /  13.8 °C 57.8 °F /  14.3 °C
Humidity: 75 % 82 % 75 % 79 %
Wind Speed: 0.4 mph /  0.6 km/h 2.0 mph /  3.2 km/h - 0.6 mph /  1 km/h
Wind Gust: 5.0 mph /  8 km/h 8.0 mph /  12.9 km/h - -
Wind:South - - SSW
Pressure: 30.03 in /  1016.8 hPa 30.03 in /  1016.8 hPa 29.97 in /  1014.8 hPa -
Precipitation: 0.00 in /  0 mm      
Melbourne, Australia Weather Graphs
 
 
Melbourne, current snapshot. Courtesy of citylink.com.au
Weather Melbourne

Melbourne Weather Radar




Weather in Melbourne, AU
Hourly Data for February 10, 2016
Time Temperature Dew Point Pressure Wind Wind Speed Wind Gust Humidity Rainfall Rate (Hourly) solar Conditions
00:04 65.1 °F /  18.4 °C 57.0 °F /  13.9 °C 30.03 in /  1016.8 hPa SW 0.9 mph /  1.4 km/h 4.0 mph /  6.4 km/h 75 % 0.00 in /  0 mm 0 W/m2
00:09 65.0 °F /  18.3 °C 57.2 °F /  14 °C 30.03 in /  1016.8 hPa SW 0.9 mph /  1.4 km/h 4.0 mph /  6.4 km/h 76 % 0.00 in /  0 mm 0 W/m2
00:14 64.8 °F /  18.2 °C 57.1 °F /  13.9 °C 30.03 in /  1016.8 hPa SW 1.3 mph /  2.1 km/h 4.0 mph /  6.4 km/h 76 % 0.00 in /  0 mm 0 W/m2
00:19 64.7 °F /  18.2 °C 57.3 °F /  14.1 °C 30.03 in /  1016.8 hPa SW 1.6 mph /  2.6 km/h 4.0 mph /  6.4 km/h 77 % 0.00 in /  0 mm 0 W/m2
00:29 64.4 °F /  18 °C 57.0 °F /  13.9 °C 30.03 in /  1016.8 hPa SW 1.2 mph /  1.9 km/h 5.0 mph /  8 km/h 77 % 0.00 in /  0 mm 0 W/m2
00:39 64.1 °F /  17.8 °C 57.1 °F /  13.9 °C 30.03 in /  1016.8 hPa SW 2.0 mph /  3.2 km/h 4.0 mph /  6.4 km/h 78 % 0.00 in /  0 mm 0 W/m2
00:44 64.0 °F /  17.8 °C 57.0 °F /  13.9 °C 30.03 in /  1016.8 hPa SW 2.0 mph /  3.2 km/h 4.0 mph /  6.4 km/h 78 % 0.00 in /  0 mm 0 W/m2
00:49 63.9 °F /  17.7 °C 56.9 °F /  13.8 °C 30.03 in /  1016.8 hPa SW 1.5 mph /  2.4 km/h 4.0 mph /  6.4 km/h 78 % 0.00 in /  0 mm 0 W/m2
00:54 63.8 °F /  17.7 °C 57.2 °F /  14 °C 30.02 in /  1016.5 hPa SW 1.0 mph /  1.6 km/h 3.0 mph /  4.8 km/h 79 % 0.00 in /  0 mm 0 W/m2
00:59 63.8 °F /  17.7 °C 57.2 °F /  14 °C 30.03 in /  1016.8 hPa SSW 1.0 mph /  1.6 km/h 3.0 mph /  4.8 km/h 79 % 0.00 in /  0 mm 0 W/m2
01:04 63.6 °F /  17.6 °C 57.0 °F /  13.9 °C 30.03 in /  1016.8 hPa SSW 1.0 mph /  1.6 km/h 4.0 mph /  6.4 km/h 79 % 0.00 in /  0 mm 0 W/m2
01:09 63.6 °F /  17.6 °C 57.3 °F /  14.1 °C 30.02 in /  1016.5 hPa SSW 1.4 mph /  2.3 km/h 4.0 mph /  6.4 km/h 80 % 0.00 in /  0 mm 0 W/m2
01:19 63.5 °F /  17.5 °C 57.2 °F /  14 °C 30.02 in /  1016.5 hPa SSW 2.0 mph /  3.2 km/h 5.0 mph /  8 km/h 80 % 0.00 in /  0 mm 0 W/m2
01:24 63.5 °F /  17.5 °C 57.6 °F /  14.2 °C 30.02 in /  1016.5 hPa SSW 2.0 mph /  3.2 km/h 5.0 mph /  8 km/h 81 % 0.00 in /  0 mm 0 W/m2
01:29 63.4 °F /  17.4 °C 57.5 °F /  14.2 °C 30.02 in /  1016.5 hPa SSW 1.7 mph /  2.7 km/h 4.0 mph /  6.4 km/h 81 % 0.00 in /  0 mm 0 W/m2
01:34 63.4 °F /  17.4 °C 57.5 °F /  14.2 °C 30.02 in /  1016.5 hPa SSW 1.1 mph /  1.8 km/h 3.0 mph /  4.8 km/h 81 % 0.00 in /  0 mm 0 W/m2
01:39 63.4 °F /  17.4 °C 57.5 °F /  14.2 °C 30.01 in /  1016.1 hPa SSW 0.5 mph /  0.8 km/h 3.0 mph /  4.8 km/h 81 % 0.00 in /  0 mm 0 W/m2
01:44 63.4 °F /  17.4 °C 57.8 °F /  14.3 °C 30.01 in /  1016.1 hPa SW 0.1 mph /  0.2 km/h 2.0 mph /  3.2 km/h 82 % 0.00 in /  0 mm 0 W/m2
01:49 63.4 °F /  17.4 °C 57.8 °F /  14.3 °C 30.01 in /  1016.1 hPa SW 0.5 mph /  0.8 km/h 3.0 mph /  4.8 km/h 82 % 0.00 in /  0 mm 0 W/m2
01:54 63.4 °F /  17.4 °C 57.8 °F /  14.3 °C 30.01 in /  1016.1 hPa SW 1.0 mph /  1.6 km/h 3.0 mph /  4.8 km/h 82 % 0.00 in /  0 mm 0 W/m2
01:59 63.4 °F /  17.4 °C 57.8 °F /  14.3 °C 30.01 in /  1016.1 hPa SW 0.5 mph /  0.8 km/h 2.0 mph /  3.2 km/h 82 % 0.00 in /  0 mm 0 W/m2
02:04 63.4 °F /  17.4 °C 57.8 °F /  14.3 °C 30.01 in /  1016.1 hPa Calm   2.0 mph /  3.2 km/h 82 % 0.00 in /  0 mm 0 W/m2
02:09 63.3 °F /  17.4 °C 57.7 °F /  14.3 °C 30.01 in /  1016.1 hPa Calm   2.0 mph /  3.2 km/h 82 % 0.00 in /  0 mm 0 W/m2
02:14 63.4 °F /  17.4 °C 57.8 °F /  14.3 °C 30.01 in /  1016.1 hPa Calm   1.0 mph /  1.6 km/h 82 % 0.00 in /  0 mm 0 W/m2
02:19 63.4 °F /  17.4 °C 57.8 °F /  14.3 °C 30.01 in /  1016.1 hPa Calm   2.0 mph /  3.2 km/h 82 % 0.00 in /  0 mm 0 W/m2
02:24 63.5 °F /  17.5 °C 57.9 °F /  14.4 °C 30.01 in /  1016.1 hPa Calm   3.0 mph /  4.8 km/h 82 % 0.00 in /  0 mm 0 W/m2
02:29 63.5 °F /  17.5 °C 57.9 °F /  14.4 °C 30.00 in /  1015.8 hPa SW 0.5 mph /  0.8 km/h 3.0 mph /  4.8 km/h 82 % 0.00 in /  0 mm 0 W/m2
02:39 63.5 °F /  17.5 °C 57.9 °F /  14.4 °C 30.00 in /  1015.8 hPa SSW 0.6 mph /  1 km/h 3.0 mph /  4.8 km/h 82 % 0.00 in /  0 mm 0 W/m2
02:44 63.6 °F /  17.6 °C 58.0 °F /  14.4 °C 30.00 in /  1015.8 hPa South 0.1 mph /  0.2 km/h 3.0 mph /  4.8 km/h 82 % 0.00 in /  0 mm 0 W/m2
02:49 63.7 °F /  17.6 °C 58.1 °F /  14.5 °C 30.00 in /  1015.8 hPa South 0.3 mph /  0.5 km/h 3.0 mph /  4.8 km/h 82 % 0.00 in /  0 mm 0 W/m2
03:04 63.8 °F /  17.7 °C 58.2 °F /  14.6 °C 29.99 in /  1015.5 hPa SSW 0.6 mph /  1 km/h 5.0 mph /  8 km/h 82 % 0.00 in /  0 mm 0 W/m2
03:09 63.8 °F /  17.7 °C 58.2 °F /  14.6 °C 29.99 in /  1015.5 hPa SSW 1.5 mph /  2.4 km/h 6.0 mph /  9.7 km/h 82 % 0.00 in /  0 mm 0 W/m2
03:14 63.9 °F /  17.7 °C 58.3 °F /  14.6 °C 29.99 in /  1015.5 hPa SSW 1.7 mph /  2.7 km/h 6.0 mph /  9.7 km/h 82 % 0.00 in /  0 mm 0 W/m2
03:19 63.9 °F /  17.7 °C 58.3 °F /  14.6 °C 29.99 in /  1015.5 hPa South 1.2 mph /  1.9 km/h 3.0 mph /  4.8 km/h 82 % 0.00 in /  0 mm 0 W/m2
03:24 64.0 °F /  17.8 °C 58.4 °F /  14.7 °C 29.99 in /  1015.5 hPa South 1.0 mph /  1.6 km/h 3.0 mph /  4.8 km/h 82 % 0.00 in /  0 mm 0 W/m2
03:29 64.0 °F /  17.8 °C 58.1 °F /  14.5 °C 29.99 in /  1015.5 hPa South 1.0 mph /  1.6 km/h 4.0 mph /  6.4 km/h 81 % 0.00 in /  0 mm 0 W/m2
03:34 64.0 °F /  17.8 °C 58.1 °F /  14.5 °C 29.99 in /  1015.5 hPa SSW 1.0 mph /  1.6 km/h 5.0 mph /  8 km/h 81 % 0.00 in /  0 mm 0 W/m2
03:39 64.1 °F /  17.8 °C 58.1 °F /  14.5 °C 29.99 in /  1015.5 hPa South 1.2 mph /  1.9 km/h 5.0 mph /  8 km/h 81 % 0.00 in /  0 mm 0 W/m2
03:49 64.1 °F /  17.8 °C 58.1 °F /  14.5 °C 29.99 in /  1015.5 hPa South 0.9 mph /  1.4 km/h 3.0 mph /  4.8 km/h 81 % 0.00 in /  0 mm 0 W/m2
03:54 64.2 °F /  17.9 °C 58.2 °F /  14.6 °C 29.99 in /  1015.5 hPa SSE 0.5 mph /  0.8 km/h 3.0 mph /  4.8 km/h 81 % 0.00 in /  0 mm 0 W/m2
03:59 64.2 °F /  17.9 °C 57.9 °F /  14.4 °C 29.99 in /  1015.5 hPa ESE 0.1 mph /  0.2 km/h 3.0 mph /  4.8 km/h 80 % 0.00 in /  0 mm 0 W/m2
04:04 64.2 °F /  17.9 °C 57.9 °F /  14.4 °C 29.99 in /  1015.5 hPa Calm   3.0 mph /  4.8 km/h 80 % 0.00 in /  0 mm 0 W/m2
04:14 64.3 °F /  17.9 °C 58.0 °F /  14.4 °C 29.99 in /  1015.5 hPa Calm   3.0 mph /  4.8 km/h 80 % 0.00 in /  0 mm 0 W/m2
04:19 64.4 °F /  18 °C 58.1 °F /  14.5 °C 29.99 in /  1015.5 hPa Calm   3.0 mph /  4.8 km/h 80 % 0.00 in /  0 mm 0 W/m2
04:29 64.4 °F /  18 °C 58.1 °F /  14.5 °C 29.99 in /  1015.5 hPa South 1.0 mph /  1.6 km/h 7.0 mph /  11.3 km/h 80 % 0.00 in /  0 mm 0 W/m2
04:34 64.5 °F /  18.1 °C 57.8 °F /  14.3 °C 29.99 in /  1015.5 hPa South 1.8 mph /  2.9 km/h 8.0 mph /  12.9 km/h 79 % 0.00 in /  0 mm 0 W/m2
04:39 64.5 °F /  18.1 °C 57.8 °F /  14.3 °C 29.98 in /  1015.1 hPa South 1.8 mph /  2.9 km/h 8.0 mph /  12.9 km/h 79 % 0.00 in /  0 mm 0 W/m2
04:44 64.6 °F /  18.1 °C 57.9 °F /  14.4 °C 29.98 in /  1015.1 hPa South 1.2 mph /  1.9 km/h 3.0 mph /  4.8 km/h 79 % 0.00 in /  0 mm 0 W/m2
04:49 64.6 °F /  18.1 °C 57.9 °F /  14.4 °C 29.98 in /  1015.1 hPa SSE 0.9 mph /  1.4 km/h 3.0 mph /  4.8 km/h 79 % 0.00 in /  0 mm 0 W/m2
04:54 64.6 °F /  18.1 °C 57.9 °F /  14.4 °C 29.98 in /  1015.1 hPa ESE 0.4 mph /  0.6 km/h 2.0 mph /  3.2 km/h 79 % 0.00 in /  0 mm 0 W/m2
04:59 64.7 °F /  18.2 °C 58.0 °F /  14.4 °C 29.98 in /  1015.1 hPa Calm   5.0 mph /  8 km/h 79 % 0.00 in /  0 mm 0 W/m2
05:04 64.7 °F /  18.2 °C 58.0 °F /  14.4 °C 29.98 in /  1015.1 hPa Calm   5.0 mph /  8 km/h 79 % 0.00 in /  0 mm 0 W/m2
05:09 64.7 °F /  18.2 °C 57.7 °F /  14.3 °C 29.98 in /  1015.1 hPa Calm   5.0 mph /  8 km/h 78 % 0.00 in /  0 mm 0 W/m2
05:14 64.7 °F /  18.2 °C 57.7 °F /  14.3 °C 29.98 in /  1015.1 hPa Calm   5.0 mph /  8 km/h 78 % 0.00 in /  0 mm 0 W/m2
05:19 64.7 °F /  18.2 °C 57.7 °F /  14.3 °C 29.98 in /  1015.1 hPa Calm   3.0 mph /  4.8 km/h 78 % 0.00 in /  0 mm 0 W/m2
05:24 64.7 °F /  18.2 °C 57.7 °F /  14.3 °C 29.98 in /  1015.1 hPa SSW 0.3 mph /  0.5 km/h 4.0 mph /  6.4 km/h 78 % 0.00 in /  0 mm 0 W/m2
05:29 64.7 °F /  18.2 °C 57.7 °F /  14.3 °C 29.98 in /  1015.1 hPa SSW 0.8 mph /  1.3 km/h 4.0 mph /  6.4 km/h 78 % 0.00 in /  0 mm 0 W/m2
05:34 64.7 °F /  18.2 °C 57.7 °F /  14.3 °C 29.98 in /  1015.1 hPa South 0.7 mph /  1.1 km/h 2.0 mph /  3.2 km/h 78 % 0.00 in /  0 mm 0 W/m2
05:39 64.7 °F /  18.2 °C 57.7 °F /  14.3 °C 29.98 in /  1015.1 hPa SSE 0.2 mph /  0.3 km/h 1.0 mph /  1.6 km/h 78 % 0.00 in /  0 mm 0 W/m2
05:44 64.8 °F /  18.2 °C 57.8 °F /  14.3 °C 29.98 in /  1015.1 hPa Calm   2.0 mph /  3.2 km/h 78 % 0.00 in /  0 mm 0 W/m2
05:49 64.8 °F /  18.2 °C 57.8 °F /  14.3 °C 29.97 in /  1014.8 hPa Calm   2.0 mph /  3.2 km/h 78 % 0.00 in /  0 mm 0 W/m2
05:59 64.8 °F /  18.2 °C 57.8 °F /  14.3 °C 29.97 in /  1014.8 hPa Calm     78 % 0.00 in /  0 mm 0 W/m2
06:04 64.8 °F /  18.2 °C 57.8 °F /  14.3 °C 29.97 in /  1014.8 hPa Calm     78 % 0.00 in /  0 mm 0 W/m2
06:09 64.8 °F /  18.2 °C 57.8 °F /  14.3 °C 29.97 in /  1014.8 hPa Calm   2.0 mph /  3.2 km/h 78 % 0.00 in /  0 mm 0 W/m2
06:14 64.8 °F /  18.2 °C 57.8 °F /  14.3 °C 29.97 in /  1014.8 hPa Calm   2.0 mph /  3.2 km/h 78 % 0.00 in /  0 mm 0 W/m2
06:19 64.8 °F /  18.2 °C 57.8 °F /  14.3 °C 29.97 in /  1014.8 hPa Calm   1.0 mph /  1.6 km/h 78 % 0.00 in /  0 mm 0 W/m2
06:24 64.8 °F /  18.2 °C 57.8 °F /  14.3 °C 29.98 in /  1015.1 hPa Calm     78 % 0.00 in /  0 mm 0 W/m2
06:29 64.8 °F /  18.2 °C 57.8 °F /  14.3 °C 29.98 in /  1015.1 hPa Calm   1.0 mph /  1.6 km/h 78 % 0.00 in /  0 mm 0 W/m2
06:39 64.8 °F /  18.2 °C 57.8 °F /  14.3 °C 29.98 in /  1015.1 hPa Calm   5.0 mph /  8 km/h 78 % 0.00 in /  0 mm 0 W/m2
06:44 64.8 °F /  18.2 °C 57.8 °F /  14.3 °C 29.98 in /  1015.1 hPa SSW 0.7 mph /  1.1 km/h 5.0 mph /  8 km/h 78 % 0.00 in /  0 mm 0 W/m2
06:49 64.8 °F /  18.2 °C 57.4 °F /  14.1 °C 29.98 in /  1015.1 hPa SSW 1.7 mph /  2.7 km/h 5.0 mph /  8 km/h 77 % 0.00 in /  0 mm 0 W/m2
06:54 64.7 °F /  18.2 °C 57.3 °F /  14.1 °C 29.99 in /  1015.5 hPa SSE 1.3 mph /  2.1 km/h 2.0 mph /  3.2 km/h 77 % 0.00 in /  0 mm 0 W/m2
06:59 64.7 °F /  18.2 °C 57.3 °F /  14.1 °C 29.99 in /  1015.5 hPa SE 0.3 mph /  0.5 km/h 4.0 mph /  6.4 km/h 77 % 0.00 in /  0 mm 0 W/m2
07:09 64.7 °F /  18.2 °C 57.3 °F /  14.1 °C 29.99 in /  1015.5 hPa Calm   2.0 mph /  3.2 km/h 77 % 0.00 in /  0 mm 0 W/m2
07:14 64.8 °F /  18.2 °C 57.8 °F /  14.3 °C 29.99 in /  1015.5 hPa Calm   2.0 mph /  3.2 km/h 78 % 0.00 in /  0 mm 5 W/m2
07:19 64.8 °F /  18.2 °C 57.8 °F /  14.3 °C 29.99 in /  1015.5 hPa SSW 0.2 mph /  0.3 km/h 6.0 mph /  9.7 km/h 78 % 0.00 in /  0 mm 5 W/m2
07:24 64.9 °F /  18.3 °C 57.9 °F /  14.4 °C 29.99 in /  1015.5 hPa SSW 0.9 mph /  1.4 km/h 7.0 mph /  11.3 km/h 78 % 0.00 in /  0 mm 9 W/m2
07:29 64.9 °F /  18.3 °C 57.9 °F /  14.4 °C 29.99 in /  1015.5 hPa SSW 1.6 mph /  2.6 km/h 7.0 mph /  11.3 km/h 78 % 0.00 in /  0 mm 12 W/m2
07:34 64.9 °F /  18.3 °C 57.9 °F /  14.4 °C 30.00 in /  1015.8 hPa SSW 1.3 mph /  2.1 km/h 3.0 mph /  4.8 km/h 78 % 0.00 in /  0 mm 14 W/m2
07:39 64.9 °F /  18.3 °C 57.9 °F /  14.4 °C 29.99 in /  1015.5 hPa SSE 0.4 mph /  0.6 km/h 2.0 mph /  3.2 km/h 78 % 0.00 in /  0 mm 19 W/m2
07:44 64.9 °F /  18.3 °C 57.9 °F /  14.4 °C 30.00 in /  1015.8 hPa Calm   2.0 mph /  3.2 km/h 78 % 0.00 in /  0 mm 19 W/m2
07:49 64.9 °F /  18.3 °C 57.9 °F /  14.4 °C 30.00 in /  1015.8 hPa Calm   3.0 mph /  4.8 km/h 78 % 0.00 in /  0 mm 21 W/m2
07:54 64.9 °F /  18.3 °C 57.9 °F /  14.4 °C 30.00 in /  1015.8 hPa Calm   3.0 mph /  4.8 km/h 78 % 0.00 in /  0 mm 26 W/m2
07:59 64.9 °F /  18.3 °C 57.9 °F /  14.4 °C 30.00 in /  1015.8 hPa Calm   1.0 mph /  1.6 km/h 78 % 0.00 in /  0 mm 30 W/m2
08:04 65.0 °F /  18.3 °C 58.0 °F /  14.4 °C 30.01 in /  1016.1 hPa Calm     78 % 0.00 in /  0 mm 37 W/m2
08:09 65.0 °F /  18.3 °C 58.0 °F /  14.4 °C 30.01 in /  1016.1 hPa Calm     78 % 0.00 in /  0 mm 47 W/m2
08:19 65.1 °F /  18.4 °C 57.7 °F /  14.3 °C 30.01 in /  1016.1 hPa Calm     77 % 0.00 in /  0 mm 54 W/m2
08:24 65.2 °F /  18.4 °C 57.8 °F /  14.3 °C 30.01 in /  1016.1 hPa Calm     77 % 0.00 in /  0 mm 58 W/m2
08:29 65.3 °F /  18.5 °C 57.9 °F /  14.4 °C 30.01 in /  1016.1 hPa Calm   2.0 mph /  3.2 km/h 77 % 0.00 in /  0 mm 62 W/m2
08:34 65.3 °F /  18.5 °C 57.9 °F /  14.4 °C 30.01 in /  1016.1 hPa Calm   3.0 mph /  4.8 km/h 77 % 0.00 in /  0 mm 65 W/m2
08:44 65.6 °F /  18.7 °C 58.2 °F /  14.6 °C 30.02 in /  1016.5 hPa South 0.7 mph /  1.1 km/h 4.0 mph /  6.4 km/h 77 % 0.00 in /  0 mm 62 W/m2
08:49 65.7 °F /  18.7 °C 57.9 °F /  14.4 °C 30.02 in /  1016.5 hPa South 1.0 mph /  1.6 km/h 3.0 mph /  4.8 km/h 76 % 0.00 in /  0 mm 69 W/m2
08:54 65.8 °F /  18.8 °C 58.0 °F /  14.4 °C 30.02 in /  1016.5 hPa SSE 0.6 mph /  1 km/h 2.0 mph /  3.2 km/h 76 % 0.00 in /  0 mm 69 W/m2
09:00 65.9 °F /  18.8 °C 58.1 °F /  14.5 °C 30.03 in /  1016.8 hPa South 0.1 mph /  0.2 km/h 2.0 mph /  3.2 km/h 76 % 0.00 in /  0 mm 70 W/m2
09:09 66.1 °F /  18.9 °C 58.3 °F /  14.6 °C 30.02 in /  1016.5 hPa Calm   4.0 mph /  6.4 km/h 76 % 0.00 in /  0 mm 77 W/m2
09:14 66.2 °F /  19 °C 58.0 °F /  14.4 °C 30.03 in /  1016.8 hPa Calm   4.0 mph /  6.4 km/h 75 % 0.00 in /  0 mm 74 W/m2
09:19 66.3 °F /  19.1 °C 58.1 °F /  14.5 °C 30.03 in /  1016.8 hPa South 0.4 mph /  0.6 km/h 5.0 mph /  8 km/h 75 % 0.00 in /  0 mm 95 W/m2
Melbourne Forecast
About Melbourne | City of Melbourne official website